sensor_id;sensor_type;location;lat;lon;timestamp;pressure;altitude;pressure_sealevel;temperature;humidity
80986;BME280;70451;51.226;6.412;2023-06-26T00:00:20;100635.88;;;20.37;75.56
80986;BME280;70451;51.226;6.412;2023-06-26T00:02:35;100627.63;;;20.30;75.94
80986;BME280;70451;51.226;6.412;2023-06-26T00:04:51;100622.72;;;20.26;75.95
80986;BME280;70451;51.226;6.412;2023-06-26T00:07:09;100627.47;;;20.22;76.29
80986;BME280;70451;51.226;6.412;2023-06-26T00:09:25;100629.03;;;20.15;75.37
80986;BME280;70451;51.226;6.412;2023-06-26T00:11:40;100630.97;;;20.13;75.47
80986;BME280;70451;51.226;6.412;2023-06-26T00:13:55;100635.56;;;20.21;75.86
80986;BME280;70451;51.226;6.412;2023-06-26T00:16:11;100631.66;;;20.25;75.80
80986;BME280;70451;51.226;6.412;2023-06-26T00:18:26;100639.75;;;20.23;75.83
80986;BME280;70451;51.226;6.412;2023-06-26T00:20:41;100632.06;;;20.20;75.86
80986;BME280;70451;51.226;6.412;2023-06-26T00:22:57;100629.88;;;20.16;75.94
80986;BME280;70451;51.226;6.412;2023-06-26T00:25:14;100626.78;;;20.11;75.90
80986;BME280;70451;51.226;6.412;2023-06-26T00:27:29;100630.81;;;20.05;75.69
80986;BME280;70451;51.226;6.412;2023-06-26T00:29:44;100624.44;;;20.08;75.95
80986;BME280;70451;51.226;6.412;2023-06-26T00:32:00;100625.00;;;20.02;75.16
80986;BME280;70451;51.226;6.412;2023-06-26T00:34:15;100622.59;;;19.99;75.13
80986;BME280;70451;51.226;6.412;2023-06-26T00:36:30;100627.50;;;20.03;75.74
80986;BME280;70451;51.226;6.412;2023-06-26T00:38:46;100621.63;;;20.00;75.05
80986;BME280;70451;51.226;6.412;2023-06-26T00:41:01;100619.41;;;19.95;75.60
80986;BME280;70451;51.226;6.412;2023-06-26T00:43:16;100634.59;;;19.93;75.37
80986;BME280;70451;51.226;6.412;2023-06-26T00:45:32;100626.94;;;20.00;74.82
80986;BME280;70451;51.226;6.412;2023-06-26T00:47:47;100624.13;;;19.91;74.51
80986;BME280;70451;51.226;6.412;2023-06-26T00:50:04;100618.00;;;19.91;74.91
80986;BME280;70451;51.226;6.412;2023-06-26T00:52:19;100620.25;;;19.86;73.83
80986;BME280;70451;51.226;6.412;2023-06-26T00:54:35;100625.66;;;19.84;74.55
80986;BME280;70451;51.226;6.412;2023-06-26T00:56:50;100617.03;;;19.82;74.47
80986;BME280;70451;51.226;6.412;2023-06-26T00:59:05;100621.50;;;19.82;74.12
80986;BME280;70451;51.226;6.412;2023-06-26T01:03:38;100622.88;;;19.76;74.53
80986;BME280;70451;51.226;6.412;2023-06-26T01:05:56;100617.56;;;19.76;74.21
80986;BME280;70451;51.226;6.412;2023-06-26T01:08:14;100611.19;;;19.79;74.13
80986;BME280;70451;51.226;6.412;2023-06-26T01:10:30;100608.53;;;19.79;74.13
80986;BME280;70451;51.226;6.412;2023-06-26T01:12:46;100606.72;;;19.79;74.05
80986;BME280;70451;51.226;6.412;2023-06-26T01:15:01;100607.16;;;19.75;73.67
80986;BME280;70451;51.226;6.412;2023-06-26T01:17:17;100607.69;;;19.78;73.84
80986;BME280;70451;51.226;6.412;2023-06-26T01:19:33;100603.66;;;19.84;73.29
80986;BME280;70451;51.226;6.412;2023-06-26T01:21:50;100596.69;;;19.83;73.33
80986;BME280;70451;51.226;6.412;2023-06-26T01:24:16;100604.91;;;19.80;72.73
80986;BME280;70451;51.226;6.412;2023-06-26T01:26:36;100613.56;;;19.82;72.45
80986;BME280;70451;51.226;6.412;2023-06-26T01:28:52;100607.28;;;19.73;72.83
80986;BME280;70451;51.226;6.412;2023-06-26T01:31:13;100610.91;;;19.72;72.46
80986;BME280;70451;51.226;6.412;2023-06-26T01:33:29;100597.94;;;19.69;72.54
80986;BME280;70451;51.226;6.412;2023-06-26T01:35:45;100600.41;;;19.61;73.12
80986;BME280;70451;51.226;6.412;2023-06-26T01:38:18;100606.44;;;19.53;73.03
80986;BME280;70451;51.226;6.412;2023-06-26T01:40:34;100601.13;;;19.53;73.00
80986;BME280;70451;51.226;6.412;2023-06-26T01:42:50;100604.59;;;19.54;72.84
80986;BME280;70451;51.226;6.412;2023-06-26T01:45:23;100606.13;;;19.57;72.75
80986;BME280;70451;51.226;6.412;2023-06-26T01:47:40;100609.91;;;19.64;72.78
80986;BME280;70451;51.226;6.412;2023-06-26T01:50:09;100598.22;;;19.66;74.17
80986;BME280;70451;51.226;6.412;2023-06-26T01:52:43;100599.91;;;19.67;74.55
80986;BME280;70451;51.226;6.412;2023-06-26T01:55:17;100604.75;;;19.62;74.20
80986;BME280;70451;51.226;6.412;2023-06-26T01:57:34;100608.38;;;19.61;74.50
80986;BME280;70451;51.226;6.412;2023-06-26T01:59:51;100611.44;;;19.57;73.94
80986;BME280;70451;51.226;6.412;2023-06-26T02:02:07;100610.03;;;19.52;74.79
80986;BME280;70451;51.226;6.412;2023-06-26T02:04:23;100615.19;;;19.54;74.39
80986;BME280;70451;51.226;6.412;2023-06-26T02:06:38;100615.50;;;19.61;74.64
80986;BME280;70451;51.226;6.412;2023-06-26T02:08:54;100616.31;;;19.51;74.63
80986;BME280;70451;51.226;6.412;2023-06-26T02:11:11;100625.50;;;19.57;74.79
80986;BME280;70451;51.226;6.412;2023-06-26T02:13:27;100623.13;;;19.54;74.40
80986;BME280;70451;51.226;6.412;2023-06-26T02:15:42;100630.38;;;19.52;74.55
80986;BME280;70451;51.226;6.412;2023-06-26T02:17:57;100624.50;;;19.48;74.50
80986;BME280;70451;51.226;6.412;2023-06-26T02:20:12;100626.19;;;19.49;74.27
80986;BME280;70451;51.226;6.412;2023-06-26T02:22:28;100637.06;;;19.46;74.85
80986;BME280;70451;51.226;6.412;2023-06-26T02:24:43;100628.13;;;19.47;74.57
80986;BME280;70451;51.226;6.412;2023-06-26T02:26:59;100630.63;;;19.49;74.66
80986;BME280;70451;51.226;6.412;2023-06-26T02:29:15;100626.19;;;19.49;74.69
80986;BME280;70451;51.226;6.412;2023-06-26T02:31:30;100633.16;;;19.50;74.36
80986;BME280;70451;51.226;6.412;2023-06-26T02:33:45;100637.41;;;19.42;74.57
80986;BME280;70451;51.226;6.412;2023-06-26T02:36:01;100641.31;;;19.38;74.71
80986;BME280;70451;51.226;6.412;2023-06-26T02:38:16;100643.00;;;19.39;74.77
80986;BME280;70451;51.226;6.412;2023-06-26T02:40:31;100648.28;;;19.39;74.74
80986;BME280;70451;51.226;6.412;2023-06-26T02:42:47;100648.97;;;19.41;75.03
80986;BME280;70451;51.226;6.412;2023-06-26T02:45:03;100650.09;;;19.38;74.89
80986;BME280;70451;51.226;6.412;2023-06-26T02:47:18;100656.22;;;19.39;75.29
80986;BME280;70451;51.226;6.412;2023-06-26T02:49:33;100662.84;;;19.33;75.35
80986;BME280;70451;51.226;6.412;2023-06-26T02:51:49;100669.56;;;19.37;75.24
80986;BME280;70451;51.226;6.412;2023-06-26T02:54:04;100663.69;;;19.34;75.54
80986;BME280;70451;51.226;6.412;2023-06-26T02:56:19;100666.22;;;19.35;75.75
80986;BME280;70451;51.226;6.412;2023-06-26T02:58:35;100665.25;;;19.36;75.82
80986;BME280;70451;51.226;6.412;2023-06-26T03:00:50;100671.38;;;19.37;76.18
80986;BME280;70451;51.226;6.412;2023-06-26T03:03:06;100671.81;;;19.42;76.08
80986;BME280;70451;51.226;6.412;2023-06-26T03:05:21;100673.91;;;19.38;76.15
80986;BME280;70451;51.226;6.412;2023-06-26T03:07:38;100675.69;;;19.38;76.25
80986;BME280;70451;51.226;6.412;2023-06-26T03:09:54;100670.41;;;19.38;76.74
80986;BME280;70451;51.226;6.412;2023-06-26T03:12:09;100673.44;;;19.33;76.56
80986;BME280;70451;51.226;6.412;2023-06-26T03:14:24;100669.66;;;19.26;77.02
80986;BME280;70451;51.226;6.412;2023-06-26T03:16:40;100678.44;;;19.27;77.12
80986;BME280;70451;51.226;6.412;2023-06-26T03:18:55;100678.59;;;19.25;77.40
80986;BME280;70451;51.226;6.412;2023-06-26T03:21:11;100677.88;;;19.23;77.26
80986;BME280;70451;51.226;6.412;2023-06-26T03:23:26;100677.47;;;19.28;77.58
80986;BME280;70451;51.226;6.412;2023-06-26T03:25:41;100674.66;;;19.20;77.38
80986;BME280;70451;51.226;6.412;2023-06-26T03:27:56;100681.22;;;19.25;77.33
80986;BME280;70451;51.226;6.412;2023-06-26T03:30:12;100682.31;;;19.23;77.65
80986;BME280;70451;51.226;6.412;2023-06-26T03:32:27;100691.34;;;19.20;77.19
80986;BME280;70451;51.226;6.412;2023-06-26T03:34:43;100685.22;;;19.20;76.86
80986;BME280;70451;51.226;6.412;2023-06-26T03:36:58;100689.16;;;19.25;76.14
80986;BME280;70451;51.226;6.412;2023-06-26T03:39:13;100689.47;;;19.32;76.08
80986;BME280;70451;51.226;6.412;2023-06-26T03:41:29;100695.06;;;19.38;75.41
80986;BME280;70451;51.226;6.412;2023-06-26T03:43:44;100696.31;;;19.44;74.47
80986;BME280;70451;51.226;6.412;2023-06-26T03:45:59;100694.44;;;19.55;73.59
80986;BME280;70451;51.226;6.412;2023-06-26T03:48:15;100699.19;;;19.52;74.65
80986;BME280;70451;51.226;6.412;2023-06-26T03:50:30;100706.81;;;19.55;74.80
80986;BME280;70451;51.226;6.412;2023-06-26T03:52:45;100701.84;;;19.62;74.69
80986;BME280;70451;51.226;6.412;2023-06-26T03:55:01;100708.81;;;19.63;74.61
80986;BME280;70451;51.226;6.412;2023-06-26T03:57:16;100712.88;;;19.67;74.20
80986;BME280;70451;51.226;6.412;2023-06-26T03:59:31;100718.34;;;19.75;73.80
80986;BME280;70451;51.226;6.412;2023-06-26T04:01:47;100723.06;;;19.81;74.18
80986;BME280;70451;51.226;6.412;2023-06-26T04:04:02;100719.16;;;19.85;73.98
80986;BME280;70451;51.226;6.412;2023-06-26T04:06:18;100724.22;;;19.88;73.73
80986;BME280;70451;51.226;6.412;2023-06-26T04:08:34;100726.97;;;19.86;73.72
80986;BME280;70451;51.226;6.412;2023-06-26T04:10:49;100717.66;;;19.92;73.72
80986;BME280;70451;51.226;6.412;2023-06-26T04:13:07;100733.25;;;19.85;73.58
80986;BME280;70451;51.226;6.412;2023-06-26T04:15:22;100726.69;;;19.89;74.36
80986;BME280;70451;51.226;6.412;2023-06-26T04:17:37;100737.84;;;19.83;74.45
80986;BME280;70451;51.226;6.412;2023-06-26T04:19:53;100738.25;;;19.79;74.28
80986;BME280;70451;51.226;6.412;2023-06-26T04:22:08;100734.22;;;19.75;74.40
80986;BME280;70451;51.226;6.412;2023-06-26T04:24:23;100735.84;;;19.76;74.50
80986;BME280;70451;51.226;6.412;2023-06-26T04:26:39;100734.59;;;19.70;73.39
80986;BME280;70451;51.226;6.412;2023-06-26T04:28:56;100728.34;;;19.71;72.66
80986;BME280;70451;51.226;6.412;2023-06-26T04:31:11;100735.44;;;19.71;71.93
80986;BME280;70451;51.226;6.412;2023-06-26T04:33:27;100734.06;;;19.76;71.81
80986;BME280;70451;51.226;6.412;2023-06-26T04:35:42;100734.91;;;19.77;71.87
80986;BME280;70451;51.226;6.412;2023-06-26T04:37:59;100733.63;;;19.71;72.14
80986;BME280;70451;51.226;6.412;2023-06-26T04:40:18;100728.91;;;19.75;72.27
80986;BME280;70451;51.226;6.412;2023-06-26T04:42:33;100737.00;;;19.73;72.03
80986;BME280;70451;51.226;6.412;2023-06-26T04:44:48;100735.44;;;19.71;72.93
80986;BME280;70451;51.226;6.412;2023-06-26T04:47:04;100742.66;;;19.69;72.78
80986;BME280;70451;51.226;6.412;2023-06-26T04:49:19;100737.66;;;19.66;71.06
80986;BME280;70451;51.226;6.412;2023-06-26T04:51:35;100742.16;;;19.75;72.73
80986;BME280;70451;51.226;6.412;2023-06-26T04:53:55;100749.38;;;19.82;71.12
80986;BME280;70451;51.226;6.412;2023-06-26T04:56:10;100746.63;;;19.84;70.11
80986;BME280;70451;51.226;6.412;2023-06-26T04:58:26;100745.94;;;19.91;71.08
80986;BME280;70451;51.226;6.412;2023-06-26T05:00:42;100749.84;;;19.87;70.60
80986;BME280;70451;51.226;6.412;2023-06-26T05:02:57;100752.75;;;19.84;70.44
80986;BME280;70451;51.226;6.412;2023-06-26T05:05:15;100762.38;;;19.85;71.19
80986;BME280;70451;51.226;6.412;2023-06-26T05:07:31;100763.34;;;19.75;70.67
80986;BME280;70451;51.226;6.412;2023-06-26T05:09:46;100767.63;;;19.76;71.13
80986;BME280;70451;51.226;6.412;2023-06-26T05:12:02;100764.56;;;19.71;70.58
80986;BME280;70451;51.226;6.412;2023-06-26T05:14:17;100773.88;;;19.65;70.56
80986;BME280;70451;51.226;6.412;2023-06-26T05:16:33;100775.16;;;19.71;71.46
80986;BME280;70451;51.226;6.412;2023-06-26T05:18:49;100782.38;;;19.69;71.95
80986;BME280;70451;51.226;6.412;2023-06-26T05:21:05;100776.94;;;19.70;72.61
80986;BME280;70451;51.226;6.412;2023-06-26T05:23:20;100789.66;;;19.76;72.79
80986;BME280;70451;51.226;6.412;2023-06-26T05:25:36;100792.88;;;19.80;72.08
80986;BME280;70451;51.226;6.412;2023-06-26T05:27:52;100782.28;;;19.89;70.83
80986;BME280;70451;51.226;6.412;2023-06-26T05:30:08;100784.56;;;20.04;70.72
80986;BME280;70451;51.226;6.412;2023-06-26T05:32:24;100783.66;;;20.24;70.38
80986;BME280;70451;51.226;6.412;2023-06-26T05:34:39;100787.16;;;20.34;69.40
80986;BME280;70451;51.226;6.412;2023-06-26T05:36:58;100787.91;;;20.46;68.88
80986;BME280;70451;51.226;6.412;2023-06-26T05:39:14;100783.00;;;20.51;68.90
80986;BME280;70451;51.226;6.412;2023-06-26T05:41:29;100779.09;;;20.45;69.63
80986;BME280;70451;51.226;6.412;2023-06-26T05:43:45;100785.03;;;20.28;70.43
80986;BME280;70451;51.226;6.412;2023-06-26T05:46:00;100794.94;;;20.26;70.63
80986;BME280;70451;51.226;6.412;2023-06-26T05:48:15;100791.16;;;20.19;70.61
80986;BME280;70451;51.226;6.412;2023-06-26T05:50:31;100792.25;;;20.07;70.68
80986;BME280;70451;51.226;6.412;2023-06-26T05:52:46;100794.50;;;20.21;69.44
80986;BME280;70451;51.226;6.412;2023-06-26T05:55:03;100794.00;;;20.46;68.85
80986;BME280;70451;51.226;6.412;2023-06-26T05:57:18;100796.09;;;20.62;68.81
80986;BME280;70451;51.226;6.412;2023-06-26T05:59:36;100799.75;;;20.80;68.22
80986;BME280;70451;51.226;6.412;2023-06-26T06:01:53;100797.78;;;20.92;67.45
80986;BME280;70451;51.226;6.412;2023-06-26T06:04:08;100809.63;;;20.97;67.04
80986;BME280;70451;51.226;6.412;2023-06-26T06:06:24;100805.59;;;21.03;66.72
80986;BME280;70451;51.226;6.412;2023-06-26T06:08:39;100809.91;;;21.04;67.63
80986;BME280;70451;51.226;6.412;2023-06-26T06:10:55;100813.81;;;21.29;66.79
80986;BME280;70451;51.226;6.412;2023-06-26T06:13:10;100817.53;;;21.45;66.49
80986;BME280;70451;51.226;6.412;2023-06-26T06:15:25;100819.75;;;21.50;66.21
80986;BME280;70451;51.226;6.412;2023-06-26T06:17:41;100824.63;;;21.55;66.68
80986;BME280;70451;51.226;6.412;2023-06-26T06:19:56;100829.66;;;21.48;65.85
80986;BME280;70451;51.226;6.412;2023-06-26T06:22:11;100829.19;;;21.62;65.78
80986;BME280;70451;51.226;6.412;2023-06-26T06:24:27;100827.09;;;21.66;65.68
80986;BME280;70451;51.226;6.412;2023-06-26T06:26:42;100833.50;;;21.73;65.26
80986;BME280;70451;51.226;6.412;2023-06-26T06:28:57;100834.28;;;21.83;65.05
80986;BME280;70451;51.226;6.412;2023-06-26T06:31:13;100833.66;;;21.71;65.07
80986;BME280;70451;51.226;6.412;2023-06-26T06:33:28;100833.91;;;21.78;65.89
80986;BME280;70451;51.226;6.412;2023-06-26T06:35:44;100849.63;;;21.89;64.88
80986;BME280;70451;51.226;6.412;2023-06-26T06:37:59;100851.78;;;21.76;64.73
80986;BME280;70451;51.226;6.412;2023-06-26T06:40:15;100857.56;;;22.08;65.04
80986;BME280;70451;51.226;6.412;2023-06-26T06:42:30;100871.44;;;21.93;66.18
80986;BME280;70451;51.226;6.412;2023-06-26T06:44:45;100877.38;;;21.67;64.61
80986;BME280;70451;51.226;6.412;2023-06-26T06:47:00;100875.38;;;21.52;65.94
80986;BME280;70451;51.226;6.412;2023-06-26T06:49:16;100881.25;;;21.45;66.17
80986;BME280;70451;51.226;6.412;2023-06-26T06:51:31;100873.97;;;21.47;66.13
80986;BME280;70451;51.226;6.412;2023-06-26T06:53:46;100886.56;;;21.45;66.52
80986;BME280;70451;51.226;6.412;2023-06-26T06:56:02;100872.19;;;21.75;66.34
80986;BME280;70451;51.226;6.412;2023-06-26T06:58:17;100881.06;;;21.66;65.56
80986;BME280;70451;51.226;6.412;2023-06-26T07:00:34;100878.00;;;21.88;65.77
80986;BME280;70451;51.226;6.412;2023-06-26T07:02:49;100879.19;;;21.76;64.65
80986;BME280;70451;51.226;6.412;2023-06-26T07:05:05;100882.22;;;22.01;64.65
80986;BME280;70451;51.226;6.412;2023-06-26T07:07:20;100888.09;;;21.85;65.31
80986;BME280;70451;51.226;6.412;2023-06-26T07:09:36;100874.38;;;21.99;65.50
80986;BME280;70451;51.226;6.412;2023-06-26T07:11:51;100888.03;;;22.14;63.70
80986;BME280;70451;51.226;6.412;2023-06-26T07:14:07;100882.47;;;22.07;64.20
80986;BME280;70451;51.226;6.412;2023-06-26T07:16:22;100883.31;;;22.53;64.78
80986;BME280;70451;51.226;6.412;2023-06-26T07:18:38;100882.19;;;22.55;64.03
80986;BME280;70451;51.226;6.412;2023-06-26T07:20:53;100883.00;;;22.83;62.75
80986;BME280;70451;51.226;6.412;2023-06-26T07:23:09;100892.50;;;23.03;60.68
80986;BME280;70451;51.226;6.412;2023-06-26T07:25:24;100898.41;;;22.35;63.25
80986;BME280;70451;51.226;6.412;2023-06-26T07:27:41;100895.00;;;22.15;65.93
80986;BME280;70451;51.226;6.412;2023-06-26T07:29:56;100903.50;;;22.46;65.24
80986;BME280;70451;51.226;6.412;2023-06-26T07:32:11;100907.34;;;22.61;63.86
80986;BME280;70451;51.226;6.412;2023-06-26T07:34:27;100905.59;;;22.52;64.33
80986;BME280;70451;51.226;6.412;2023-06-26T07:36:42;100905.66;;;22.87;62.91
80986;BME280;70451;51.226;6.412;2023-06-26T07:38:57;100901.72;;;22.64;62.49
80986;BME280;70451;51.226;6.412;2023-06-26T07:41:13;100903.53;;;23.09;63.63
80986;BME280;70451;51.226;6.412;2023-06-26T07:43:28;100905.66;;;23.05;61.62
80986;BME280;70451;51.226;6.412;2023-06-26T07:45:43;100914.25;;;22.54;62.94
80986;BME280;70451;51.226;6.412;2023-06-26T07:47:59;100921.97;;;22.47;63.01
80986;BME280;70451;51.226;6.412;2023-06-26T07:50:14;100928.03;;;22.40;62.91
80986;BME280;70451;51.226;6.412;2023-06-26T07:52:34;100930.34;;;22.25;62.71
80986;BME280;70451;51.226;6.412;2023-06-26T07:54:50;100939.59;;;22.21;63.96
80986;BME280;70451;51.226;6.412;2023-06-26T07:57:05;100941.63;;;22.09;63.74
80986;BME280;70451;51.226;6.412;2023-06-26T07:59:29;100940.78;;;22.36;63.99
80986;BME280;70451;51.226;6.412;2023-06-26T08:01:44;100937.75;;;22.58;62.26
80986;BME280;70451;51.226;6.412;2023-06-26T08:04:00;100942.44;;;23.10;61.61
80986;BME280;70451;51.226;6.412;2023-06-26T08:06:15;100941.13;;;23.31;59.85
80986;BME280;70451;51.226;6.412;2023-06-26T08:08:30;100948.91;;;23.07;59.70
80986;BME280;70451;51.226;6.412;2023-06-26T08:10:46;100951.41;;;22.73;60.76
80986;BME280;70451;51.226;6.412;2023-06-26T08:13:01;100952.78;;;22.67;61.28
80986;BME280;70451;51.226;6.412;2023-06-26T08:15:16;100950.56;;;22.90;59.94
80986;BME280;70451;51.226;6.412;2023-06-26T08:17:33;100949.00;;;22.70;61.13
80986;BME280;70451;51.226;6.412;2023-06-26T08:19:48;100945.41;;;22.34;61.38
80986;BME280;70451;51.226;6.412;2023-06-26T08:22:03;100946.16;;;22.26;61.36
80986;BME280;70451;51.226;6.412;2023-06-26T08:24:19;100958.22;;;22.21;62.31
80986;BME280;70451;51.226;6.412;2023-06-26T08:26:35;100967.16;;;22.47;61.31
80986;BME280;70451;51.226;6.412;2023-06-26T08:28:50;100962.03;;;22.73;61.19
80986;BME280;70451;51.226;6.412;2023-06-26T08:31:05;100967.00;;;22.86;60.83
80986;BME280;70451;51.226;6.412;2023-06-26T08:33:21;100959.91;;;22.67;61.48
80986;BME280;70451;51.226;6.412;2023-06-26T08:35:36;100967.66;;;22.88;60.88
80986;BME280;70451;51.226;6.412;2023-06-26T08:37:51;100967.53;;;22.89;59.59
80986;BME280;70451;51.226;6.412;2023-06-26T08:40:10;100965.88;;;23.41;60.77
80986;BME280;70451;51.226;6.412;2023-06-26T08:42:25;100981.00;;;23.06;58.41
80986;BME280;70451;51.226;6.412;2023-06-26T08:44:41;100969.22;;;23.61;58.82
80986;BME280;70451;51.226;6.412;2023-06-26T08:46:58;100976.00;;;23.56;58.01
80986;BME280;70451;51.226;6.412;2023-06-26T08:49:46;100973.56;;;23.62;57.75
80986;BME280;70451;51.226;6.412;2023-06-26T08:52:16;100977.44;;;23.32;60.35
80986;BME280;70451;51.226;6.412;2023-06-26T08:54:38;100982.09;;;23.48;59.09
80986;BME280;70451;51.226;6.412;2023-06-26T08:56:55;100977.81;;;23.73;57.66
80986;BME280;70451;51.226;6.412;2023-06-26T08:59:12;100973.09;;;23.93;57.52
80986;BME280;70451;51.226;6.412;2023-06-26T09:01:30;100976.78;;;23.74;57.58
80986;BME280;70451;51.226;6.412;2023-06-26T09:03:46;100975.03;;;23.83;56.81
80986;BME280;70451;51.226;6.412;2023-06-26T09:06:02;100978.97;;;23.35;57.74
80986;BME280;70451;51.226;6.412;2023-06-26T09:08:17;100978.25;;;23.33;57.89
80986;BME280;70451;51.226;6.412;2023-06-26T09:10:33;100981.28;;;23.73;58.83
80986;BME280;70451;51.226;6.412;2023-06-26T09:12:48;100973.34;;;23.81;57.60
80986;BME280;70451;51.226;6.412;2023-06-26T09:15:05;100977.53;;;23.58;57.80
80986;BME280;70451;51.226;6.412;2023-06-26T09:17:32;100985.88;;;23.63;57.23
80986;BME280;70451;51.226;6.412;2023-06-26T09:19:48;100977.47;;;23.76;57.26
80986;BME280;70451;51.226;6.412;2023-06-26T09:22:03;100980.16;;;24.28;57.83
80986;BME280;70451;51.226;6.412;2023-06-26T09:24:18;100985.00;;;24.74;56.01
80986;BME280;70451;51.226;6.412;2023-06-26T09:26:38;100990.09;;;23.92;55.30
80986;BME280;70451;51.226;6.412;2023-06-26T09:28:54;100988.81;;;24.22;53.51
80986;BME280;70451;51.226;6.412;2023-06-26T09:31:10;100985.38;;;24.11;53.23
80986;BME280;70451;51.226;6.412;2023-06-26T09:33:25;100983.38;;;23.88;54.87
80986;BME280;70451;51.226;6.412;2023-06-26T09:35:41;101004.50;;;23.28;56.39
80986;BME280;70451;51.226;6.412;2023-06-26T09:37:57;101002.28;;;23.23;55.58
80986;BME280;70451;51.226;6.412;2023-06-26T09:40:13;101000.09;;;23.72;55.43
80986;BME280;70451;51.226;6.412;2023-06-26T09:42:29;100988.16;;;24.28;56.06
80986;BME280;70451;51.226;6.412;2023-06-26T09:44:45;100995.28;;;24.53;54.36
80986;BME280;70451;51.226;6.412;2023-06-26T09:47:04;101003.97;;;24.21;53.96
80986;BME280;70451;51.226;6.412;2023-06-26T09:49:19;101002.31;;;24.62;54.04
80986;BME280;70451;51.226;6.412;2023-06-26T09:51:36;101010.03;;;24.73;51.15
80986;BME280;70451;51.226;6.412;2023-06-26T09:53:51;101002.28;;;24.54;51.94
80986;BME280;70451;51.226;6.412;2023-06-26T09:56:07;101013.34;;;24.33;54.25
80986;BME280;70451;51.226;6.412;2023-06-26T09:58:23;101011.13;;;24.21;54.61
80986;BME280;70451;51.226;6.412;2023-06-26T10:00:39;101012.06;;;24.79;54.63
80986;BME280;70451;51.226;6.412;2023-06-26T10:02:54;101008.69;;;24.69;53.07
80986;BME280;70451;51.226;6.412;2023-06-26T10:05:10;101002.78;;;24.24;54.03
80986;BME280;70451;51.226;6.412;2023-06-26T10:07:25;101008.81;;;23.82;53.20
80986;BME280;70451;51.226;6.412;2023-06-26T10:09:42;101008.94;;;23.72;55.93
80986;BME280;70451;51.226;6.412;2023-06-26T10:12:06;101027.19;;;23.85;53.57
80986;BME280;70451;51.226;6.412;2023-06-26T10:14:27;101019.00;;;24.30;51.63
80986;BME280;70451;51.226;6.412;2023-06-26T10:16:44;101015.28;;;24.23;52.25
80986;BME280;70451;51.226;6.412;2023-06-26T10:19:02;101025.38;;;23.68;52.42
80986;BME280;70451;51.226;6.412;2023-06-26T10:21:21;101036.31;;;23.83;54.58
80986;BME280;70451;51.226;6.412;2023-06-26T10:23:39;101021.13;;;24.01;52.93
80986;BME280;70451;51.226;6.412;2023-06-26T10:25:58;101015.63;;;24.02;50.85
80986;BME280;70451;51.226;6.412;2023-06-26T10:28:16;101021.78;;;24.21;52.69
80986;BME280;70451;51.226;6.412;2023-06-26T10:30:34;101019.19;;;24.71;50.48
80986;BME280;70451;51.226;6.412;2023-06-26T10:32:51;101025.81;;;24.92;46.29
80986;BME280;70451;51.226;6.412;2023-06-26T10:35:07;101025.81;;;24.92;47.81
80986;BME280;70451;51.226;6.412;2023-06-26T10:37:42;101022.16;;;24.93;47.20
80986;BME280;70451;51.226;6.412;2023-06-26T10:39:59;101017.25;;;24.89;46.61
80986;BME280;70451;51.226;6.412;2023-06-26T10:42:15;101014.38;;;25.32;44.62
80986;BME280;70451;51.226;6.412;2023-06-26T10:44:41;101010.88;;;25.48;45.98
80986;BME280;70451;51.226;6.412;2023-06-26T10:46:57;101021.41;;;25.42;44.86
80986;BME280;70451;51.226;6.412;2023-06-26T10:49:13;101025.22;;;25.31;43.32
80986;BME280;70451;51.226;6.412;2023-06-26T10:51:29;101015.09;;;25.67;44.75
80986;BME280;70451;51.226;6.412;2023-06-26T10:53:50;101015.78;;;25.77;39.73
80986;BME280;70451;51.226;6.412;2023-06-26T10:56:08;101039.44;;;25.56;43.35
80986;BME280;70451;51.226;6.412;2023-06-26T11:03:29;101050.19;;;24.38;45.64
80986;BME280;70451;51.226;6.412;2023-06-26T11:06:12;101060.31;;;24.26;47.06
80986;BME280;70451;51.226;6.412;2023-06-26T11:08:47;101054.09;;;24.00;48.05
80986;BME280;70451;51.226;6.412;2023-06-26T11:11:02;101041.78;;;23.81;48.51
80986;BME280;70451;51.226;6.412;2023-06-26T11:13:18;101045.13;;;23.83;47.41
80986;BME280;70451;51.226;6.412;2023-06-26T11:15:37;101052.91;;;24.46;46.11
80986;BME280;70451;51.226;6.412;2023-06-26T11:17:53;101060.78;;;24.04;46.60
80986;BME280;70451;51.226;6.412;2023-06-26T11:20:10;101056.13;;;24.49;47.14
80986;BME280;70451;51.226;6.412;2023-06-26T11:22:26;101059.47;;;24.85;46.15
80986;BME280;70451;51.226;6.412;2023-06-26T11:24:43;101056.00;;;24.93;45.88
80986;BME280;70451;51.226;6.412;2023-06-26T11:27:02;101060.28;;;25.44;46.43
80986;BME280;70451;51.226;6.412;2023-06-26T11:29:18;101065.72;;;25.10;43.95
80986;BME280;70451;51.226;6.412;2023-06-26T11:31:35;101067.50;;;24.59;45.45
80986;BME280;70451;51.226;6.412;2023-06-26T11:33:54;101056.56;;;24.37;44.80
80986;BME280;70451;51.226;6.412;2023-06-26T11:36:10;101067.94;;;24.47;44.13
80986;BME280;70451;51.226;6.412;2023-06-26T11:38:25;101054.09;;;24.51;45.32
80986;BME280;70451;51.226;6.412;2023-06-26T11:40:40;101059.00;;;24.56;46.68
80986;BME280;70451;51.226;6.412;2023-06-26T11:42:55;101065.69;;;24.34;48.59
80986;BME280;70451;51.226;6.412;2023-06-26T11:45:12;101065.00;;;24.58;44.20
80986;BME280;70451;51.226;6.412;2023-06-26T11:47:27;101064.59;;;25.21;45.63
80986;BME280;70451;51.226;6.412;2023-06-26T11:49:48;101067.69;;;24.92;43.37
80986;BME280;70451;51.226;6.412;2023-06-26T11:52:03;101083.00;;;24.90;45.35
80986;BME280;70451;51.226;6.412;2023-06-26T11:54:26;101082.06;;;24.65;43.66
80986;BME280;70451;51.226;6.412;2023-06-26T11:56:42;101094.34;;;24.58;43.76
80986;BME280;70451;51.226;6.412;2023-06-26T11:59:08;101084.22;;;24.18;44.79
80986;BME280;70451;51.226;6.412;2023-06-26T12:01:25;101085.22;;;24.69;43.14